createdAt,value
2019-01-30T00:02:08.964Z,96303.30
2019-01-30T00:04:39.678Z,96298.28
2019-01-30T00:07:10.289Z,96290.48
2019-01-30T00:09:40.579Z,96296.72
2019-01-30T00:12:11.861Z,96282.47
2019-01-30T00:14:42.800Z,96292.62
2019-01-30T00:17:13.319Z,96280.55
2019-01-30T00:19:43.592Z,96276.77
2019-01-30T00:22:13.867Z,96281.19
2019-01-30T00:24:44.478Z,96274.61
2019-01-30T00:27:14.958Z,96282.39
2019-01-30T00:29:45.193Z,96260.96
2019-01-30T00:32:15.477Z,96261.66
2019-01-30T00:34:45.644Z,96254.84
2019-01-30T00:37:16.524Z,96231.49
2019-01-30T00:39:48.707Z,96243.70
2019-01-30T00:42:19.801Z,96240.36
2019-01-30T00:44:50.330Z,96247.55
2019-01-30T00:47:20.526Z,96241.53
2019-01-30T00:49:51.043Z,96249.20
2019-01-30T00:52:21.350Z,96244.91
2019-01-30T00:54:52.036Z,96248.00
2019-01-30T00:57:22.611Z,96235.64
2019-01-30T00:59:53.154Z,96233.61
2019-01-30T01:02:23.511Z,96224.62
2019-01-30T01:04:54.009Z,96216.95
2019-01-30T01:07:24.320Z,96217.09
2019-01-30T01:09:54.928Z,96217.58
2019-01-30T01:12:25.181Z,96224.02
2019-01-30T01:14:55.713Z,96215.63
2019-01-30T01:17:26.358Z,96225.83
2019-01-30T01:19:56.872Z,96220.06
2019-01-30T01:22:27.090Z,96215.74
2019-01-30T01:24:57.352Z,96224.25
2019-01-30T01:27:27.573Z,96220.18
2019-01-30T01:29:57.792Z,96215.03
2019-01-30T01:32:28.396Z,96208.67
2019-01-30T01:34:59.024Z,96208.19
2019-01-30T01:37:29.273Z,96210.48
2019-01-30T01:40:00.229Z,96209.98
2019-01-30T01:42:30.497Z,96210.10
2019-01-30T01:45:01.797Z,96218.27
2019-01-30T01:47:32.380Z,96202.31
2019-01-30T01:50:03.437Z,96203.52
2019-01-30T01:52:33.966Z,96199.68
2019-01-30T01:55:06.049Z,96198.59
2019-01-30T01:57:36.969Z,96197.65
2019-01-30T02:00:35.207Z,96187.87
2019-01-30T02:03:00.527Z,96187.38
2019-01-30T02:05:30.734Z,96178.98
2019-01-30T02:08:01.617Z,96182.11
2019-01-30T02:10:32.149Z,96181.05
2019-01-30T02:13:02.810Z,96179.48
2019-01-30T02:15:33.406Z,96174.32
2019-01-30T02:18:03.938Z,96170.45
2019-01-30T02:20:35.211Z,96169.77
2019-01-30T02:23:05.806Z,96170.11
2019-01-30T02:25:36.063Z,96168.79
2019-01-30T02:28:06.340Z,96163.07
2019-01-30T02:30:47.088Z,96159.01
2019-01-30T02:33:09.061Z,96158.59
2019-01-30T02:35:39.279Z,96168.79
2019-01-30T02:38:09.813Z,96159.68
2019-01-30T02:40:40.029Z,96159.98
2019-01-30T02:43:10.295Z,96154.48
2019-01-30T02:45:40.579Z,96148.12
2019-01-30T02:48:11.219Z,96131.39
2019-01-30T02:50:41.428Z,96126.48
2019-01-30T02:53:12.956Z,96122.80
2019-01-30T02:55:44.032Z,96121.48
2019-01-30T02:58:15.794Z,96109.00
2019-01-30T03:00:59.375Z,96110.91
2019-01-30T03:03:26.516Z,96110.08
2019-01-30T03:06:00.455Z,96108.33
2019-01-30T03:08:31.241Z,96099.56
2019-01-30T03:11:01.429Z,96093.25
2019-01-30T03:13:31.636Z,96105.27
2019-01-30T03:19:37.074Z,96114.03
2019-01-30T03:22:07.603Z,96119.09
2019-01-30T03:24:39.815Z,96119.58
2019-01-30T03:27:18.086Z,96109.42
2019-01-30T03:29:50.297Z,96100.58
2019-01-30T03:32:20.604Z,96097.84
2019-01-30T03:34:53.202Z,96100.53
2019-01-30T03:37:25.633Z,96091.22
2019-01-30T03:39:56.221Z,96092.54
2019-01-30T03:42:26.549Z,96099.66
2019-01-30T03:44:57.078Z,96091.87
2019-01-30T03:47:28.661Z,96091.09
2019-01-30T03:49:58.929Z,96094.27
2019-01-30T03:52:29.103Z,96103.73
2019-01-30T03:54:59.485Z,96080.64
2019-01-30T03:57:29.664Z,96101.77
2019-01-30T04:00:00.403Z,96096.20
2019-01-30T04:02:30.742Z,96089.91
2019-01-30T04:05:02.541Z,96086.44
2019-01-30T04:07:33.928Z,96104.06
2019-01-30T04:10:05.747Z,96104.16
2019-01-30T04:12:36.002Z,96091.44
2019-01-30T04:15:07.056Z,96090.14
2019-01-30T04:17:37.542Z,96095.12
2019-01-30T04:20:09.405Z,96096.13
2019-01-30T04:22:39.884Z,96097.64
2019-01-30T04:25:10.529Z,96096.23
2019-01-30T04:27:40.708Z,96092.72
2019-01-30T04:30:17.157Z,96085.49
2019-01-30T04:32:48.191Z,96090.87
2019-01-30T04:35:18.714Z,96095.39
2019-01-30T04:37:49.260Z,96100.81
2019-01-30T04:40:20.912Z,96105.41
2019-01-30T04:42:51.853Z,96106.53
2019-01-30T04:45:24.244Z,96110.84
2019-01-30T04:47:54.580Z,96108.95
2019-01-30T04:50:25.890Z,96112.43
2019-01-30T04:52:56.890Z,96124.23
2019-01-30T04:55:27.526Z,96135.17
2019-01-30T04:57:58.348Z,96142.05
2019-01-30T05:00:29.673Z,96150.17
2019-01-30T05:02:59.851Z,96145.03
2019-01-30T05:05:30.135Z,96147.52
2019-01-30T05:08:00.398Z,96147.34
2019-01-30T05:10:30.672Z,96144.20
2019-01-30T05:13:00.948Z,96143.78
2019-01-30T05:15:31.498Z,96128.84
2019-01-30T05:18:02.015Z,96133.63
2019-01-30T05:20:32.453Z,96130.48
2019-01-30T05:23:02.671Z,96135.61
2019-01-30T05:25:32.930Z,96135.45
2019-01-30T05:28:03.515Z,96133.60
2019-01-30T05:30:34.111Z,96136.66
2019-01-30T05:33:04.702Z,96143.53
2019-01-30T05:35:34.869Z,96146.51
2019-01-30T05:38:05.445Z,96155.14
2019-01-30T05:40:35.971Z,96155.22
2019-01-30T05:43:06.190Z,96159.84
2019-01-30T05:45:36.450Z,96170.72
2019-01-30T05:48:06.729Z,96180.05
2019-01-30T05:50:36.992Z,96191.16
2019-01-30T05:53:07.415Z,96194.22
2019-01-30T05:55:37.573Z,96197.95
2019-01-30T05:58:08.452Z,96196.63
2019-01-30T06:00:42.188Z,96201.30
2019-01-30T06:03:12.975Z,96199.36
2019-01-30T06:05:43.346Z,96220.43
2019-01-30T06:08:13.628Z,96218.72
2019-01-30T06:10:44.176Z,96219.39
2019-01-30T06:13:15.011Z,96212.58
2019-01-30T06:15:45.546Z,96214.52
2019-01-30T06:18:16.873Z,96225.09
2019-01-30T06:20:47.029Z,96222.23
2019-01-30T06:23:17.539Z,96231.41
2019-01-30T06:25:48.072Z,96239.62
2019-01-30T06:28:18.275Z,96253.34
2019-01-30T06:30:48.830Z,96264.03
2019-01-30T06:33:19.029Z,96262.02
2019-01-30T06:35:49.286Z,96264.73
2019-01-30T06:38:20.202Z,96264.45
2019-01-30T06:40:52.475Z,96277.17
2019-01-30T06:43:23.709Z,96282.34
2019-01-30T06:45:54.138Z,96284.27
2019-01-30T06:48:24.678Z,96290.83
2019-01-30T06:50:55.408Z,96290.55
2019-01-30T06:53:25.998Z,96295.90
2019-01-30T06:55:56.850Z,96295.68
2019-01-30T06:58:27.567Z,96303.98
2019-01-30T07:00:58.145Z,96295.83
2019-01-30T07:03:28.550Z,96310.98
2019-01-30T07:05:59.105Z,96312.87
2019-01-30T07:08:29.732Z,96315.64
2019-01-30T07:11:10.097Z,96317.88
2019-01-30T07:13:32.219Z,96311.86
2019-01-30T07:16:02.482Z,96318.91
2019-01-30T07:18:33.398Z,96322.56
2019-01-30T07:21:03.646Z,96319.12
2019-01-30T07:23:33.942Z,96335.59
2019-01-30T07:26:04.199Z,96330.14
2019-01-30T07:28:35.470Z,96337.95
2019-01-30T07:31:05.758Z,96350.20
2019-01-30T07:33:36.770Z,96361.27
2019-01-30T07:36:06.948Z,96379.70
2019-01-30T07:38:37.795Z,96373.80
2019-01-30T07:41:07.987Z,96376.78
2019-01-30T07:43:38.589Z,96376.84
2019-01-30T07:46:08.864Z,96401.23
2019-01-30T07:48:39.125Z,96393.00
2019-01-30T07:51:09.798Z,96389.31
2019-01-30T07:53:40.417Z,96399.97
2019-01-30T07:56:10.922Z,96395.52
2019-01-30T07:58:41.760Z,96405.47
2019-01-30T08:01:12.018Z,96407.70
2019-01-30T08:03:42.920Z,96408.54
2019-01-30T08:06:13.549Z,96406.94
2019-01-30T08:08:43.877Z,96421.99
2019-01-30T08:11:14.598Z,96434.66
2019-01-30T08:13:44.858Z,96428.80
2019-01-30T08:16:15.080Z,96437.33
2019-01-30T08:18:45.357Z,96451.45
2019-01-30T08:21:15.664Z,96445.52
2019-01-30T08:23:45.845Z,96441.30
2019-01-30T08:26:16.480Z,96441.06
2019-01-30T08:28:46.993Z,96453.95
2019-01-30T08:31:17.644Z,96458.01
2019-01-30T08:33:47.867Z,96456.11
2019-01-30T08:36:18.160Z,96472.76
2019-01-30T08:38:49.800Z,96474.36
2019-01-30T08:41:20.025Z,96479.84
2019-01-30T08:43:50.777Z,96483.39
2019-01-30T08:46:20.980Z,96496.03
2019-01-30T08:48:51.251Z,96501.55
2019-01-30T08:51:21.540Z,96495.88
2019-01-30T08:53:51.793Z,96507.88
2019-01-30T08:56:23.112Z,96519.77
2019-01-30T08:58:53.277Z,96515.57
2019-01-30T09:01:25.278Z,96523.17
2019-01-30T09:03:56.588Z,96526.45
2019-01-30T09:06:26.941Z,96537.91
2019-01-30T09:08:57.510Z,96547.02
2019-01-30T09:11:27.845Z,96561.59
2019-01-30T09:13:58.079Z,96547.45
2019-01-30T09:16:28.788Z,96567.22
2019-01-30T09:19:00.442Z,96587.93
2019-01-30T09:21:31.076Z,96574.86
2019-01-30T09:24:01.612Z,96570.13
2019-01-30T09:26:32.931Z,96579.31
2019-01-30T09:29:03.552Z,96590.55
2019-01-30T09:31:33.792Z,96581.77
2019-01-30T09:34:04.474Z,96578.95
2019-01-30T09:36:34.990Z,96605.41
2019-01-30T09:39:09.065Z,96593.35
2019-01-30T09:41:39.617Z,96601.44
2019-01-30T09:44:09.886Z,96611.81
2019-01-30T09:46:40.384Z,96616.65
2019-01-30T09:49:11.143Z,96614.22
2019-01-30T09:51:42.339Z,96618.12
2019-01-30T09:54:13.086Z,96651.11
2019-01-30T09:56:44.008Z,96635.95
2019-01-30T09:59:14.556Z,96631.86
2019-01-30T10:01:44.751Z,96656.83
2019-01-30T10:04:15.405Z,96667.48
2019-01-30T10:06:47.063Z,96658.20
2019-01-30T10:09:17.375Z,96667.56
2019-01-30T10:11:47.913Z,96692.84
2019-01-30T10:14:18.186Z,96674.05
2019-01-30T10:16:48.779Z,96680.94
2019-01-30T10:19:19.405Z,96715.22
2019-01-30T10:21:50.027Z,96701.49
2019-01-30T10:24:20.970Z,96695.47
2019-01-30T10:26:51.194Z,96705.62
2019-01-30T10:29:21.534Z,96706.61
2019-01-30T10:31:53.299Z,96715.86
2019-01-30T10:34:24.642Z,96740.09
2019-01-30T10:36:55.267Z,96737.10
2019-01-30T10:39:25.914Z,96732.73
2019-01-30T10:41:56.205Z,96738.61
2019-01-30T10:44:26.498Z,96735.16
2019-01-30T10:46:57.076Z,96746.47
2019-01-30T10:49:27.339Z,96758.16
2019-01-30T10:51:58.237Z,96755.58
2019-01-30T10:54:28.861Z,96751.46
2019-01-30T10:56:59.504Z,96773.94
2019-01-30T10:59:29.770Z,96752.47
2019-01-30T11:02:00.027Z,96755.70
2019-01-30T11:04:30.325Z,96759.18
2019-01-30T11:07:00.838Z,96766.73
2019-01-30T11:09:31.476Z,96774.52
2019-01-30T11:12:02.388Z,96771.72
2019-01-30T11:14:32.636Z,96782.35
2019-01-30T11:17:03.286Z,96793.91
2019-01-30T11:19:33.478Z,96790.00
2019-01-30T11:22:08.049Z,96776.59
2019-01-30T11:24:38.329Z,96796.86
2019-01-30T11:27:08.650Z,96783.86
2019-01-30T11:29:38.912Z,96788.69
2019-01-30T11:32:09.160Z,96784.97
2019-01-30T11:34:39.417Z,96815.71
2019-01-30T11:37:15.185Z,96814.58
2019-01-30T11:39:48.475Z,96790.69
2019-01-30T11:42:19.166Z,96787.73
2019-01-30T11:44:49.453Z,96806.42
2019-01-30T11:47:19.731Z,96797.48
2019-01-30T11:49:50.012Z,96795.48
2019-01-30T11:52:20.960Z,96811.39
2019-01-30T11:54:51.740Z,96810.03
2019-01-30T11:57:22.341Z,96823.88
2019-01-30T11:59:52.941Z,96804.97
2019-01-30T12:02:23.611Z,96824.82
2019-01-30T12:04:54.151Z,96808.73
2019-01-30T12:07:25.075Z,96816.34
2019-01-30T12:09:55.930Z,96825.84
2019-01-30T12:12:26.509Z,96817.97
2019-01-30T12:14:56.705Z,96815.84
2019-01-30T12:17:27.356Z,96823.17
2019-01-30T12:19:58.018Z,96840.50
2019-01-30T12:22:28.666Z,96860.87
2019-01-30T12:24:59.525Z,96814.80
2019-01-30T12:27:30.187Z,96834.05
2019-01-30T12:30:01.055Z,96818.87
2019-01-30T12:32:32.770Z,96837.90
2019-01-30T12:35:03.021Z,96860.65
2019-01-30T12:37:33.685Z,96833.19
2019-01-30T12:40:05.032Z,96838.53
2019-01-30T12:42:35.626Z,96863.63
2019-01-30T12:45:07.814Z,96844.63
2019-01-30T12:47:38.107Z,96858.27
2019-01-30T12:50:08.964Z,96860.19
2019-01-30T12:52:39.536Z,96863.67
2019-01-30T12:55:30.478Z,96874.00
2019-01-30T12:58:01.332Z,96866.13
2019-01-30T13:00:53.356Z,96855.34
2019-01-30T13:03:23.621Z,96851.31
2019-01-30T13:05:53.814Z,96858.91
2019-01-30T13:08:24.401Z,96849.31
2019-01-30T13:10:55.260Z,96856.05
2019-01-30T13:13:25.850Z,96868.91
2019-01-30T13:15:56.188Z,96854.98
2019-01-30T13:18:26.704Z,96875.50
2019-01-30T13:20:57.409Z,96878.40
2019-01-30T13:23:27.994Z,96862.33
2019-01-30T13:25:58.694Z,96865.87
2019-01-30T13:28:28.913Z,96865.48
2019-01-30T13:30:59.195Z,96871.39
2019-01-30T13:33:29.817Z,96886.11
2019-01-30T13:36:00.058Z,96886.73
2019-01-30T13:38:30.666Z,96882.59
2019-01-30T13:41:01.339Z,96875.00
2019-01-30T13:43:31.867Z,96875.00
2019-01-30T13:46:05.393Z,96896.34
2019-01-30T13:48:35.508Z,96892.50
2019-01-30T13:51:05.835Z,96890.28
2019-01-30T13:53:37.260Z,96894.02
2019-01-30T13:56:07.737Z,96906.34
2019-01-30T13:58:38.348Z,96905.05
2019-01-30T14:01:17.232Z,96905.05
2019-01-30T14:03:42.742Z,96900.20
2019-01-30T14:06:13.405Z,96898.36
2019-01-30T14:08:43.761Z,96924.60
2019-01-30T14:11:14.041Z,96907.91
2019-01-30T14:13:44.310Z,96922.90
2019-01-30T14:16:14.692Z,96911.97
2019-01-30T14:18:45.558Z,96911.97
2019-01-30T14:21:16.339Z,96907.81
2019-01-30T14:23:46.926Z,96921.89
2019-01-30T14:26:19.114Z,96921.89
2019-01-30T14:28:50.412Z,96910.44
2019-01-30T14:31:20.620Z,96916.38
2019-01-30T14:33:50.866Z,96928.76
2019-01-30T14:36:21.171Z,96922.02
2019-01-30T14:38:51.810Z,96922.48
2019-01-30T14:41:39.901Z,96932.74
2019-01-30T14:44:11.028Z,96925.74
2019-01-30T14:46:41.573Z,96935.14
2019-01-30T14:49:12.182Z,96937.55
2019-01-30T14:51:42.515Z,96935.63
2019-01-30T14:54:13.691Z,96937.27
2019-01-30T14:56:44.242Z,96950.42
2019-01-30T14:59:15.937Z,96944.78
2019-01-30T15:01:47.993Z,96948.86
2019-01-30T15:04:18.199Z,96951.06
2019-01-30T15:06:48.585Z,96944.73
2019-01-30T15:09:19.408Z,96947.66
2019-01-30T15:11:50.071Z,96966.83
2019-01-30T15:14:20.219Z,96949.19
2019-01-30T15:16:50.751Z,96953.38
2019-01-30T15:19:20.978Z,96954.88
2019-01-30T15:21:51.939Z,96952.31
2019-01-30T15:24:22.102Z,96947.50
2019-01-30T15:26:53.930Z,96955.12
2019-01-30T15:29:24.238Z,96957.97
2019-01-30T15:31:54.968Z,96960.09
2019-01-30T15:34:25.915Z,96956.53
2019-01-30T15:36:56.509Z,96966.59
2019-01-30T15:39:26.936Z,96962.17
2019-01-30T15:41:57.178Z,96954.98
2019-01-30T15:44:27.928Z,96955.20
2019-01-30T15:46:58.461Z,96953.75
2019-01-30T15:49:29.155Z,96955.53
2019-01-30T15:52:00.399Z,96953.22
2019-01-30T15:54:31.070Z,96947.50
2019-01-30T15:57:01.746Z,96946.83
2019-01-30T15:59:32.273Z,96945.09
2019-01-30T16:02:02.762Z,96945.48
2019-01-30T16:04:33.005Z,96945.05
2019-01-30T16:07:03.990Z,96951.91
2019-01-30T16:09:35.159Z,96949.89
2019-01-30T16:12:05.805Z,96957.84
2019-01-30T16:14:36.038Z,96951.11
2019-01-30T16:17:08.221Z,96950.01
2019-01-30T16:19:39.151Z,96954.92
2019-01-30T16:22:12.013Z,96952.87
2019-01-30T16:24:44.910Z,96955.50
2019-01-30T16:27:16.423Z,96953.59
2019-01-30T16:29:47.354Z,96949.84
2019-01-30T16:32:19.153Z,96958.08
2019-01-30T16:34:50.016Z,96963.25
2019-01-30T16:37:20.366Z,96962.77
2019-01-30T16:39:50.876Z,96970.92
2019-01-30T16:42:21.294Z,96960.30
2019-01-30T16:44:52.413Z,96966.35
2019-01-30T16:47:22.928Z,96972.85
2019-01-30T16:49:53.558Z,96973.99
2019-01-30T16:52:24.883Z,96976.92
2019-01-30T16:54:55.728Z,96973.64
2019-01-30T16:57:25.943Z,96979.69
2019-01-30T16:59:58.260Z,96983.20
2019-01-30T17:02:29.777Z,96979.51
2019-01-30T17:05:02.099Z,96986.03
2019-01-30T17:07:32.620Z,96981.62
2019-01-30T17:10:04.798Z,96986.98
2019-01-30T17:12:37.345Z,96985.91
2019-01-30T17:15:13.257Z,96979.84
2019-01-30T17:17:44.037Z,96984.95
2019-01-30T17:20:28.650Z,96987.59
2019-01-30T17:23:00.340Z,96981.59
2019-01-30T17:25:31.281Z,96980.98
2019-01-30T17:28:01.935Z,96977.77
2019-01-30T17:30:41.362Z,96981.83
2019-01-30T17:33:12.018Z,96982.95
2019-01-30T17:35:43.338Z,96981.26
2019-01-30T17:38:14.005Z,96981.26
2019-01-30T17:41:06.590Z,96979.70
2019-01-30T17:43:38.058Z,96980.28
2019-01-30T17:46:08.879Z,96979.02
2019-01-30T17:48:39.968Z,96976.88
2019-01-30T17:51:31.689Z,96978.17
2019-01-30T17:54:02.884Z,96981.78
2019-01-30T17:56:35.569Z,96976.63
2019-01-30T17:59:06.168Z,96980.64
2019-01-30T18:01:38.195Z,96970.19
2019-01-30T18:04:09.444Z,96974.16
2019-01-30T18:06:40.906Z,96971.02
2019-01-30T18:09:12.368Z,96978.94
2019-01-30T18:11:43.319Z,96969.94
2019-01-30T18:14:15.176Z,96962.87
2019-01-30T18:16:47.107Z,96967.45
2019-01-30T18:19:20.838Z,96969.47
2019-01-30T18:21:53.234Z,96972.48
2019-01-30T18:24:26.388Z,96975.23
2019-01-30T18:27:00.085Z,96977.02
2019-01-30T18:29:33.119Z,96971.34
2019-01-30T18:32:09.099Z,96973.39
2019-01-30T18:34:43.158Z,96973.06
2019-01-30T18:37:16.740Z,96976.03
2019-01-30T18:39:49.818Z,96973.05
2019-01-30T18:42:22.846Z,96974.00
2019-01-30T18:44:56.261Z,96970.51
2019-01-30T18:47:28.798Z,96970.99
2019-01-30T18:50:01.647Z,96964.19
2019-01-30T18:52:34.066Z,96960.80
2019-01-30T18:55:08.487Z,96961.43
2019-01-30T18:58:01.763Z,96967.56
2019-01-30T19:00:39.314Z,96959.91
2019-01-30T19:03:13.503Z,96961.58
2019-01-30T19:05:44.879Z,96953.67
2019-01-30T19:08:18.643Z,96955.83
2019-01-30T19:10:52.588Z,96953.32
2019-01-30T19:13:25.794Z,96955.25
2019-01-30T19:16:18.146Z,96948.98
2019-01-30T19:18:52.027Z,96943.49
2019-01-30T19:21:25.235Z,96944.59
2019-01-30T19:23:59.093Z,96944.81
2019-01-30T19:26:32.614Z,96940.84
2019-01-30T19:29:06.340Z,96936.30
2019-01-30T19:31:39.489Z,96933.52
2019-01-30T19:34:14.406Z,96927.28
2019-01-30T19:36:48.217Z,96927.19
2019-01-30T19:39:22.945Z,96914.55
2019-01-30T19:41:57.821Z,96916.19
2019-01-30T19:44:50.850Z,96917.30
2019-01-30T19:47:26.223Z,96912.45
2019-01-30T19:50:00.542Z,96911.72
2019-01-30T19:52:35.552Z,96903.08
2019-01-30T19:55:11.490Z,96908.27
2019-01-30T19:57:46.903Z,96911.30
2019-01-30T20:00:32.186Z,96915.00
2019-01-30T20:03:07.522Z,96911.50
2019-01-30T20:05:41.664Z,96913.05
2019-01-30T20:08:15.946Z,96917.77
2019-01-30T20:10:50.741Z,96917.06
2019-01-30T20:13:24.400Z,96917.44
2019-01-30T20:15:58.319Z,96919.14
2019-01-30T20:18:34.591Z,96926.64
2019-01-30T20:21:08.836Z,96925.37
2019-01-30T20:24:01.754Z,96921.32
2019-01-30T20:26:35.486Z,96920.76
2019-01-30T20:29:08.608Z,96914.80
2019-01-30T20:32:01.034Z,96914.24
2019-01-30T20:34:35.264Z,96911.54
2019-01-30T20:37:28.298Z,96912.02
2019-01-30T20:40:03.243Z,96908.16
2019-01-30T20:42:37.745Z,96913.88
2019-01-30T20:45:16.321Z,96911.15
2019-01-30T20:47:50.028Z,96913.69
2019-01-30T20:50:26.010Z,96914.20
2019-01-30T20:52:59.841Z,96904.73
2019-01-30T20:55:33.132Z,96908.81
2019-01-30T20:58:07.381Z,96915.07
2019-01-30T21:00:46.398Z,96912.09
2019-01-30T21:03:20.668Z,96910.75
2019-01-30T21:05:55.099Z,96902.84
2019-01-30T21:08:28.406Z,96912.85
2019-01-30T21:11:02.087Z,96907.98
2019-01-30T21:13:35.381Z,96903.16
2019-01-30T21:16:08.834Z,96909.62
2019-01-30T21:18:41.343Z,96912.19
2019-01-30T21:21:14.694Z,96911.07
2019-01-30T21:23:47.715Z,96909.83
2019-01-30T21:26:20.668Z,96909.38
2019-01-30T21:28:53.127Z,96903.82
2019-01-30T21:31:44.819Z,96895.05
2019-01-30T21:34:17.289Z,96890.14
2019-01-30T21:36:50.183Z,96882.61
2019-01-30T21:39:24.073Z,96881.36
2019-01-30T21:41:57.589Z,96876.42
2019-01-30T21:44:30.770Z,96864.04
2019-01-30T21:47:03.453Z,96866.05
2019-01-30T21:49:35.350Z,96866.16
2019-01-30T21:52:26.769Z,96857.16
2019-01-30T21:54:58.301Z,96859.58
2019-01-30T21:57:30.815Z,96862.43
2019-01-30T22:00:02.317Z,96849.48
2019-01-30T22:02:34.689Z,96838.22
2019-01-30T22:05:07.372Z,96838.27
2019-01-30T22:07:37.995Z,96835.04
2019-01-30T22:10:11.097Z,96831.24
2019-01-30T22:12:41.718Z,96824.61
2019-01-30T22:15:13.147Z,96820.67
2019-01-30T22:17:43.428Z,96818.30
2019-01-30T22:20:16.026Z,96816.41
2019-01-30T22:22:47.575Z,96812.97
2019-01-30T22:25:20.664Z,96810.91
2019-01-30T22:27:51.419Z,96813.22
2019-01-30T22:30:23.660Z,96811.34
2019-01-30T22:32:54.182Z,96809.03
2019-01-30T22:35:24.814Z,96813.16
2019-01-30T22:37:55.336Z,96805.77
2019-01-30T22:40:26.101Z,96806.16
2019-01-30T22:42:56.295Z,96803.99
2019-01-30T22:45:28.022Z,96803.70
2019-01-30T22:47:58.195Z,96799.28
2019-01-30T22:50:28.881Z,96803.24
2019-01-30T22:52:59.132Z,96802.34
2019-01-30T22:55:30.663Z,96802.93
2019-01-30T22:58:01.253Z,96802.60
2019-01-30T23:01:31.359Z,96798.25
2019-01-30T23:04:22.837Z,96801.34
2019-01-30T23:07:37.707Z,96797.01
2019-01-30T23:10:54.008Z,96792.98
2019-01-30T23:14:08.084Z,96788.17
2019-01-30T23:17:22.138Z,96792.09
2019-01-30T23:20:22.770Z,96785.64
2019-01-30T23:23:37.200Z,96782.48
2019-01-30T23:26:23.973Z,96782.17
2019-01-30T23:29:35.496Z,96776.22
2019-01-30T23:32:31.777Z,96784.24
2019-01-30T23:35:31.879Z,96790.32
2019-01-30T23:38:45.334Z,96785.09
2019-01-30T23:41:41.527Z,96772.41
2019-01-30T23:44:32.763Z,96763.85
2019-01-30T23:47:51.753Z,96764.58
2019-01-30T23:50:51.641Z,96757.51
2019-01-30T23:54:03.454Z,96753.80
2019-01-30T23:56:50.994Z,96747.60
